Time;durP1;ratioP1;P1;durP2;ratioP2;P2;SDS_P1;SDS_P2;PMS_P1;PMS_P2;Temp;Humidity;BMP_temperature;BMP_pressure;BME280_temperature;BME280_humidity;BME280_pressure;Samples;Min_cycle;Max_cycle;Signal;HPM_P1;HPM_P2
2023/04/02 00:00:17;;;;;;;22.80;12.60;;;;;;;;;;2033426;29;20083;-78
2023/04/02 00:01:38;;;;;;;21.63;13.00;;;;;;;;;;2036847;29;20031;-78
2023/04/02 00:03:00;;;;;;;18.45;12.52;;;;;;;;;;2036086;29;20036;-76
2023/04/02 00:04:21;;;;;;;;;;;;;;;;;;2037024;29;20047;-76
2023/04/02 00:05:49;;;;;;;20.10;12.60;;;;;;;;;;2037350;29;19914;-76
2023/04/02 00:07:29;;;;;;;23.08;14.02;;;;;;;;;;2035789;29;20390;-76
2023/04/02 00:08:53;;;;;;;23.83;15.10;;;;;;;;;;2038078;29;20032;-76
2023/04/02 00:10:29;;;;;;;23.65;14.07;;;;;;;;;;2033749;29;20151;-76
2023/04/02 00:11:54;;;;;;;20.45;12.85;;;;;;;;;;2038032;29;20101;-76
2023/04/02 00:13:15;;;;;;;26.45;14.52;;;;;;;;;;2037249;29;20036;-76
2023/04/02 00:14:36;;;;;;;18.45;11.65;;;;;;;;;;2039015;29;20032;-76
2023/04/02 00:15:57;;;;;;;16.70;11.77;;;;;;;;;;2036130;29;20031;-76
2023/04/02 00:17:19;;;;;;;27.48;13.63;;;;;;;;;;2034906;28;20028;-76
2023/04/02 00:18:44;;;;;;;20.15;13.30;;;;;;;;;;2038256;29;20043;-77
2023/04/02 00:20:05;;;;;;;18.52;13.38;;;;;;;;;;2039847;29;20040;-76
2023/04/02 00:21:28;;;;;;;22.33;14.25;;;;;;;;;;2035784;29;20189;-76
2023/04/02 00:22:49;;;;;;;20.40;13.60;;;;;;;;;;2025078;29;20385;-76
2023/04/02 00:24:14;;;;;;;20.85;12.88;;;;;;;;;;2035900;29;20372;-76
2023/04/02 00:25:41;;;;;;;20.08;13.27;;;;;;;;;;2037390;29;20097;-76
2023/04/02 00:27:02;;;;;;;17.70;12.15;;;;;;;;;;2041747;29;20035;-76
2023/04/02 00:28:23;;;;;;;21.00;13.55;;;;;;;;;;2030911;29;20048;-76
2023/04/02 00:29:48;;;;;;;16.55;11.95;;;;;;;;;;2037661;29;20043;-76
2023/04/02 00:31:09;;;;;;;17.92;12.32;;;;;;;;;;2034937;29;20036;-76
2023/04/02 00:32:31;;;;;;;19.83;13.45;;;;;;;;;;2037540;29;20036;-76
2023/04/02 00:33:52;;;;;;;;;;;;;;;;;;2039025;29;20177;-76
2023/04/02 00:35:19;;;;;;;20.70;12.88;;;;;;;;;;2038820;29;19918;-76
2023/04/02 00:36:42;;;;;;;21.80;14.40;;;;;;;;;;2037251;29;21282;-76
2023/04/02 00:38:03;;;;;;;16.95;12.48;;;;;;;;;;2033504;29;20043;-76
2023/04/02 00:39:27;;;;;;;29.17;14.55;;;;;;;;;;2026576;29;20481;-76
2023/04/02 00:40:48;;;;;;;19.15;12.90;;;;;;;;;;2034939;29;20075;-76
2023/04/02 00:42:11;;;;;;;25.73;14.57;;;;;;;;;;2037857;29;20075;-76
2023/04/02 00:43:34;;;;;;;23.45;14.50;;;;;;;;;;2034175;29;20047;-76
2023/04/02 00:44:57;;;;;;;22.60;13.35;;;;;;;;;;2035948;29;20437;-76
2023/04/02 00:46:23;;;;;;;21.17;13.98;;;;;;;;;;2037384;29;20056;-76
2023/04/02 00:47:44;;;;;;;27.15;15.77;;;;;;;;;;2034924;29;20083;-76
2023/04/02 00:49:13;;;;;;;21.55;13.48;;;;;;;;;;2035103;29;20031;-76
2023/04/02 00:50:38;;;;;;;21.10;12.95;;;;;;;;;;2032234;29;20118;-76
2023/04/02 00:52:01;;;;;;;21.25;13.52;;;;;;;;;;2033166;29;20044;-76
2023/04/02 00:53:27;;;;;;;23.60;14.10;;;;;;;;;;2035474;29;20039;-76
2023/04/02 00:54:55;;;;;;;21.60;13.68;;;;;;;;;;2037592;29;20036;-76
2023/04/02 00:56:20;;;;;;;20.45;14.02;;;;;;;;;;2035059;29;20486;-76
2023/04/02 00:57:43;;;;;;;21.52;13.48;;;;;;;;;;2036373;29;20051;-76
2023/04/02 00:59:16;;;;;;;25.48;14.02;;;;;;;;;;2036474;29;20036;-76
2023/04/02 01:25:42;;;;;;;38.13;18.90;;;;;;;;;;2250258;23;20487;-91
2023/04/02 01:27:04;;;;;;;24.02;16.30;;;;;;;;;;2043995;28;20398;-88
2023/04/02 01:28:30;;;;;;;26.88;15.48;;;;;;;;;;2036364;29;20491;-88
2023/04/02 01:29:55;;;;;;;23.58;15.35;;;;;;;;;;2034767;29;20048;-87
2023/04/02 01:31:16;;;;;;;24.60;15.75;;;;;;;;;;2039942;29;20099;-88
2023/04/02 01:32:37;;;;;;;28.83;15.73;;;;;;;;;;2036168;29;20413;-88
2023/04/02 01:33:59;;;;;;;25.58;16.58;;;;;;;;;;2037080;29;20032;-88
2023/04/02 01:35:21;;;;;;;23.40;14.90;;;;;;;;;;2036713;29;20091;-88
2023/04/02 01:36:42;;;;;;;23.88;15.50;;;;;;;;;;2043925;29;20421;-88
2023/04/02 01:38:12;;;;;;;27.92;15.90;;;;;;;;;;2037461;29;20075;-89
2023/04/02 01:39:36;;;;;;;21.67;14.50;;;;;;;;;;2038896;29;20068;-88
2023/04/02 01:41:02;;;;;;;19.60;13.38;;;;;;;;;;2035155;29;20372;-88
2023/04/02 01:42:32;;;;;;;22.23;14.13;;;;;;;;;;2038847;29;20028;-88
2023/04/02 01:43:57;;;;;;;22.63;15.05;;;;;;;;;;2041765;28;20028;-88
2023/04/02 01:45:20;;;;;;;21.30;15.15;;;;;;;;;;2037035;29;20039;-88
2023/04/02 01:46:41;;;;;;;22.52;14.07;;;;;;;;;;2036382;29;20028;-88
2023/04/02 01:48:23;;;;;;;17.08;12.30;;;;;;;;;;2037344;29;20039;-88
2023/04/02 01:49:45;;;;;;;21.23;13.45;;;;;;;;;;2040181;29;20028;-88
2023/04/02 01:51:06;;;;;;;18.90;13.85;;;;;;;;;;2036191;29;20353;-88
2023/04/02 01:52:37;;;;;;;18.02;12.68;;;;;;;;;;2046007;29;20076;-89
2023/04/02 01:53:59;;;;;;;18.63;13.95;;;;;;;;;;2038118;29;20035;-88
2023/04/02 01:55:41;;;;;;;19.48;13.48;;;;;;;;;;2033266;29;20036;-89
2023/04/02 01:57:02;;;;;;;16.67;12.73;;;;;;;;;;2046485;29;20043;-89
2023/04/02 01:58:27;;;;;;;18.40;12.60;;;;;;;;;;2041110;29;20109;-88
2023/04/02 01:59:48;;;;;;;18.88;13.10;;;;;;;;;;2041895;29;20023;-89
2023/04/02 02:01:12;;;;;;;19.10;13.15;;;;;;;;;;2042214;29;20019;-88
2023/04/02 02:02:33;;;;;;;18.70;12.85;;;;;;;;;;2038834;29;20051;-89
2023/04/02 02:03:54;;;;;;;16.58;11.45;;;;;;;;;;2048931;29;20071;-89
2023/04/02 02:05:17;;;;;;;23.60;12.27;;;;;;;;;;2044513;29;20023;-88
2023/04/02 02:06:38;;;;;;;17.50;12.38;;;;;;;;;;2040043;29;20055;-88
2023/04/02 02:08:00;;;;;;;15.52;12.18;;;;;;;;;;2033248;29;20044;-88
2023/04/02 02:09:24;;;;;;;16.20;12.10;;;;;;;;;;2041697;29;20027;-88
2023/04/02 02:10:45;;;;;;;15.63;11.32;;;;;;;;;;2044632;29;20027;-89
2023/04/02 02:12:05;;;;;;;15.15;11.68;;;;;;;;;;2039847;29;20032;-88
2023/04/02 02:13:27;;;;;;;19.23;12.00;;;;;;;;;;2041230;29;20551;-88
2023/04/02 02:14:49;;;;;;;18.17;12.70;;;;;;;;;;2045510;29;20035;-88
2023/04/02 02:16:11;;;;;;;17.23;12.18;;;;;;;;;;2039208;29;20100;-88
2023/04/02 02:17:33;;;;;;;18.58;12.13;;;;;;;;;;2037590;28;20040;-90
2023/04/02 02:18:59;;;;;;;18.42;11.45;;;;;;;;;;2037181;29;20035;-88
2023/04/02 02:20:21;;;;;;;17.42;11.55;;;;;;;;;;2038059;29;20027;-88
2023/04/02 02:21:43;;;;;;;22.40;13.13;;;;;;;;;;2038190;29;20024;-88
2023/04/02 02:23:04;;;;;;;18.92;12.77;;;;;;;;;;2034338;29;20044;-89
2023/04/02 02:24:27;;;;;;;17.80;12.32;;;;;;;;;;2039948;29;20035;-88
2023/04/02 02:25:48;;;;;;;20.17;12.57;;;;;;;;;;2035841;29;20452;-88
2023/04/02 02:27:36;;;;;;;23.13;13.48;;;;;;;;;;2037028;29;20116;-88
2023/04/02 02:28:58;;;;;;;20.95;12.32;;;;;;;;;;2037699;29;20043;-88
2023/04/02 02:30:22;;;;;;;21.35;12.82;;;;;;;;;;2036454;29;20067;-88
2023/04/02 02:31:44;;;;;;;17.60;12.55;;;;;;;;;;2035687;29;20032;-88
2023/04/02 02:33:09;;;;;;;20.13;12.13;;;;;;;;;;2043892;28;20062;-88
2023/04/02 02:34:35;;;;;;;18.77;12.75;;;;;;;;;;2040035;29;20039;-89
2023/04/02 02:35:56;;;;;;;19.13;13.00;;;;;;;;;;2045818;29;20110;-88
2023/04/02 02:37:22;;;;;;;22.05;13.45;;;;;;;;;;2039748;29;20028;-89
2023/04/02 02:38:49;;;;;;;23.27;15.20;;;;;;;;;;2035401;29;20066;-88
2023/04/02 02:40:11;;;;;;;23.05;14.55;;;;;;;;;;2045001;28;20111;-88
2023/04/02 02:41:36;;;;;;;20.35;13.65;;;;;;;;;;2039597;29;20578;-88
2023/04/02 02:43:00;;;;;;;24.13;14.45;;;;;;;;;;2035799;29;20193;-88
2023/04/02 02:44:28;;;;;;;27.73;16.27;;;;;;;;;;2035250;29;20031;-88
2023/04/02 02:45:49;;;;;;;22.90;15.00;;;;;;;;;;2037471;29;20036;-88
2023/04/02 02:47:13;;;;;;;19.35;14.13;;;;;;;;;;2037302;29;20032;-88
2023/04/02 02:48:36;;;;;;;27.65;15.90;;;;;;;;;;2043311;28;20142;-88
2023/04/02 02:49:59;;;;;;;25.95;14.88;;;;;;;;;;2038836;29;20024;-88
2023/04/02 02:51:24;;;;;;;24.05;14.02;;;;;;;;;;2047179;28;20035;-89
2023/04/02 02:52:45;;;;;;;21.88;14.23;;;;;;;;;;2038903;29;20498;-94
2023/04/02 02:54:06;;;;;;;22.13;14.55;;;;;;;;;;2039329;29;20561;-90
2023/04/02 02:55:31;;;;;;;27.52;15.00;;;;;;;;;;2036570;29;20506;-89
2023/04/02 02:56:55;;;;;;;19.95;13.77;;;;;;;;;;2036847;29;20522;-89
2023/04/02 02:58:18;;;;;;;21.75;13.60;;;;;;;;;;2035796;29;20079;-89
2023/04/02 02:59:40;;;;;;;24.65;15.30;;;;;;;;;;2038762;29;20083;-87
2023/04/02 03:01:01;;;;;;;23.83;15.60;;;;;;;;;;2038788;29;20027;-89
2023/04/02 03:02:23;;;;;;;24.52;15.18;;;;;;;;;;2037558;29;20081;-89
2023/04/02 03:03:45;;;;;;;24.67;15.23;;;;;;;;;;2036254;29;20032;-89
2023/04/02 03:05:07;;;;;;;20.63;13.15;;;;;;;;;;2038402;29;20484;-90
2023/04/02 03:06:28;;;;;;;23.73;14.55;;;;;;;;;;2044112;29;20526;-89
2023/04/02 03:07:51;;;;;;;23.67;14.93;;;;;;;;;;2037304;29;20040;-89
2023/04/02 03:09:18;;;;;;;22.88;14.05;;;;;;;;;;2042755;28;20031;-89
2023/04/02 03:10:56;;;;;;;21.00;13.43;;;;;;;;;;2037850;29;20106;-89
2023/04/02 03:12:27;;;;;;;19.55;13.13;;;;;;;;;;2038709;29;20101;-89
2023/04/02 03:13:49;;;;;;;18.10;13.63;;;;;;;;;;2046461;28;20106;-89
2023/04/02 03:15:20;;;;;;;20.15;14.52;;;;;;;;;;2047053;28;20027;-89
2023/04/02 03:16:44;;;;;;;26.80;14.07;;;;;;;;;;2039762;29;20198;-89
2023/04/02 03:18:12;;;;;;;23.63;15.43;;;;;;;;;;2036939;29;20159;-90
2023/04/02 03:19:36;;;;;;;22.65;13.93;;;;;;;;;;2043411;28;20032;-89
2023/04/02 03:21:01;;;;;;;23.52;14.00;;;;;;;;;;2039622;29;20844;-89
2023/04/02 03:22:30;;;;;;;25.05;14.00;;;;;;;;;;2037013;29;20035;-89
2023/04/02 03:24:06;;;;;;;24.23;14.68;;;;;;;;;;2046442;28;20035;-89
2023/04/02 03:25:30;;;;;;;21.83;13.18;;;;;;;;;;2045618;28;20048;-89
2023/04/02 03:26:55;;;;;;;24.33;14.15;;;;;;;;;;2045248;29;20050;-89
2023/04/02 03:28:19;;;;;;;20.92;13.85;;;;;;;;;;2040021;28;20036;-89
2023/04/02 03:29:43;;;;;;;18.15;12.70;;;;;;;;;;2041609;29;20055;-89
2023/04/02 03:31:36;;;;;;;20.05;13.93;;;;;;;;;;2036524;29;20036;-89
2023/04/02 03:33:01;;;;;;;25.02;13.60;;;;;;;;;;2028817;29;20033;-90
2023/04/02 03:34:24;;;;;;;22.63;13.50;;;;;;;;;;2039028;29;20036;-89
2023/04/02 03:35:48;;;;;;;20.38;13.93;;;;;;;;;;2038806;29;20039;-88
2023/04/02 03:37:13;;;;;;;20.25;12.88;;;;;;;;;;2039465;29;20131;-89
2023/04/02 03:38:36;;;;;;;19.30;12.73;;;;;;;;;;2039073;29;20058;-89
2023/04/02 03:40:00;;;;;;;23.10;14.18;;;;;;;;;;2037156;29;20051;-89
2023/04/02 03:41:26;;;;;;;23.50;14.65;;;;;;;;;;2038862;29;20036;-89
2023/04/02 03:42:49;;;;;;;22.80;13.52;;;;;;;;;;2037012;29;20042;-89
2023/04/02 03:44:29;;;;;;;22.73;13.43;;;;;;;;;;2038469;29;20028;-89
2023/04/02 03:45:52;;;;;;;21.25;14.80;;;;;;;;;;2037467;29;20027;-89
2023/04/02 03:47:15;;;;;;;25.77;14.80;;;;;;;;;;2039581;29;20051;-89
2023/04/02 03:48:45;;;;;;;20.38;13.85;;;;;;;;;;2036231;29;20076;-89
2023/04/02 03:50:10;;;;;;;21.75;14.48;;;;;;;;;;2032861;29;20036;-89
2023/04/02 03:51:35;;;;;;;22.45;14.63;;;;;;;;;;2044927;29;20027;-89
2023/04/02 03:52:57;;;;;;;18.83;14.95;;;;;;;;;;2038847;29;20036;-89
2023/04/02 03:54:18;;;;;;;20.70;13.38;;;;;;;;;;2039401;29;20545;-89
2023/04/02 03:55:39;;;;;;;24.17;14.82;;;;;;;;;;2036601;29;20084;-89
2023/04/02 03:57:01;;;;;;;20.10;14.57;;;;;;;;;;2043924;29;20059;-89
2023/04/02 03:58:25;;;;;;;21.40;14.05;;;;;;;;;;2036932;28;20040;-89
2023/04/02 03:59:54;;;;;;;21.23;13.27;;;;;;;;;;2040830;29;20032;-89
2023/04/02 04:01:22;;;;;;;24.60;14.45;;;;;;;;;;2035728;29;20032;-89
2023/04/02 04:02:51;;;;;;;19.40;13.32;;;;;;;;;;2035245;29;20425;-89
2023/04/02 04:04:18;;;;;;;21.02;14.40;;;;;;;;;;2038797;29;20032;-89
2023/04/02 04:05:45;;;;;;;23.40;14.07;;;;;;;;;;2038496;29;20028;-89
2023/04/02 04:07:10;;;;;;;23.90;14.70;;;;;;;;;;2041534;29;20035;-89
2023/04/02 04:08:42;;;;;;;16.60;13.07;;;;;;;;;;2037845;28;20043;-89
2023/04/02 04:10:05;;;;;;;26.85;14.05;;;;;;;;;;2038133;29;20039;-89
2023/04/02 04:11:33;;;;;;;18.30;12.48;;;;;;;;;;2034930;29;20086;-89
2023/04/02 04:13:00;;;;;;;22.25;13.68;;;;;;;;;;2042263;28;20240;-90
2023/04/02 04:14:31;;;;;;;19.90;14.25;;;;;;;;;;2040500;29;20087;-89
2023/04/02 04:16:01;;;;;;;18.95;14.02;;;;;;;;;;2037169;29;20039;-89
2023/04/02 04:17:30;;;;;;;18.35;12.07;;;;;;;;;;2042023;28;20051;-88
2023/04/02 04:18:51;;;;;;;17.40;11.82;;;;;;;;;;2035524;29;20106;-89
2023/04/02 04:20:20;;;;;;;23.60;13.05;;;;;;;;;;2037539;29;20036;-89
2023/04/02 04:21:44;;;;;;;24.60;13.77;;;;;;;;;;2038102;29;20047;-87
2023/04/02 04:23:40;;;;;;;21.08;12.90;;;;;;;;;;2041975;29;20058;-89
2023/04/02 04:25:03;;;;;;;17.70;12.05;;;;;;;;;;2036496;29;20040;-89
2023/04/02 04:26:34;;;;;;;21.50;12.75;;;;;;;;;;2023988;29;20084;-89
2023/04/02 04:28:04;;;;;;;26.40;14.80;;;;;;;;;;2046097;28;20074;-89
2023/04/02 04:29:37;;;;;;;21.10;14.27;;;;;;;;;;2036313;29;20047;-89
2023/04/02 04:31:05;;;;;;;18.27;13.45;;;;;;;;;;2045903;28;20041;-91
2023/04/02 04:32:31;;;;;;;22.55;14.63;;;;;;;;;;2036905;29;20036;-91
2023/04/02 04:33:53;;;;;;;23.50;13.88;;;;;;;;;;2043188;28;20114;-91
2023/04/02 04:35:20;;;;;;;22.02;13.27;;;;;;;;;;2034580;29;20036;-90
2023/04/02 04:36:46;;;;;;;20.02;13.73;;;;;;;;;;2043991;29;20035;-91
2023/04/02 04:38:43;;;;;;;26.13;15.23;;;;;;;;;;2035124;29;20336;-91
2023/04/02 04:40:17;;;;;;;24.27;13.65;;;;;;;;;;2014393;29;20081;-91
2023/04/02 04:41:39;;;;;;;22.55;13.07;;;;;;;;;;2039524;29;20585;-91
2023/04/02 04:43:03;;;;;;;19.83;13.80;;;;;;;;;;2035133;28;20447;-91
2023/04/02 04:44:33;;;;;;;21.80;13.85;;;;;;;;;;2035441;29;21305;-91
2023/04/02 04:46:15;;;;;;;19.77;12.50;;;;;;;;;;2036385;29;20036;-90
2023/04/02 04:47:38;;;;;;;20.48;12.40;;;;;;;;;;2045903;29;20075;-91
2023/04/02 04:49:08;;;;;;;22.08;13.65;;;;;;;;;;2033649;29;20205;-91
2023/04/02 04:50:37;;;;;;;23.20;14.80;;;;;;;;;;2035555;29;20048;-92
2023/04/02 04:52:13;;;;;;;29.77;14.73;;;;;;;;;;2035693;29;20443;-91
2023/04/02 04:53:40;;;;;;;22.52;13.85;;;;;;;;;;2036731;29;20106;-91
2023/04/02 04:55:01;;;;;;;23.63;14.13;;;;;;;;;;2041824;29;20058;-91
2023/04/02 04:56:26;;;;;;;30.30;15.63;;;;;;;;;;2033395;29;20482;-91
2023/04/02 04:57:48;;;;;;;25.27;14.82;;;;;;;;;;2042121;28;20031;-91
2023/04/02 04:59:27;;;;;;;21.00;13.73;;;;;;;;;;2045194;28;20182;-91
2023/04/02 05:00:57;;;;;;;28.70;14.88;;;;;;;;;;2033986;29;20084;-91
2023/04/02 05:02:31;;;;;;;29.95;15.38;;;;;;;;;;2035498;29;20554;-91
2023/04/02 05:03:59;;;;;;;25.92;13.88;;;;;;;;;;2034430;29;20040;-91
2023/04/02 05:05:24;;;;;;;28.67;14.25;;;;;;;;;;2040274;28;20039;-91
2023/04/02 05:06:48;;;;;;;19.10;12.95;;;;;;;;;;2043503;28;20405;-91
2023/04/02 05:08:25;;;;;;;19.90;13.13;;;;;;;;;;2038108;28;20124;-92
2023/04/02 05:09:52;;;;;;;20.75;12.45;;;;;;;;;;2038902;29;20428;-91
2023/04/02 05:11:19;;;;;;;21.05;13.32;;;;;;;;;;2035286;29;20035;-90
2023/04/02 05:12:40;;;;;;;24.08;12.90;;;;;;;;;;2045141;29;20082;-90
2023/04/02 05:14:06;;;;;;;22.50;13.93;;;;;;;;;;2037399;29;20040;-90
2023/04/02 05:15:42;;;;;;;24.50;13.80;;;;;;;;;;2035542;29;21486;-91
2023/04/02 05:17:06;;;;;;;19.42;13.52;;;;;;;;;;2038756;29;20042;-91
2023/04/02 05:18:31;;;;;;;25.92;15.30;;;;;;;;;;2037343;28;20494;-91
2023/04/02 05:19:59;;;;;;;24.73;13.73;;;;;;;;;;2037264;29;20048;-91
2023/04/02 05:21:20;;;;;;;20.75;13.27;;;;;;;;;;2026413;29;20036;-90
2023/04/02 05:22:44;;;;;;;21.15;13.13;;;;;;;;;;2035140;29;20036;-90
2023/04/02 05:24:24;;;;;;;27.17;14.75;;;;;;;;;;2044427;28;20051;-91
2023/04/02 05:26:03;;;;;;;38.55;16.88;;;;;;;;;;2035793;29;20430;-91
2023/04/02 05:27:24;;;;;;;17.10;12.88;;;;;;;;;;2036081;29;20039;-91
2023/04/02 05:29:04;;;;;;;19.67;13.10;;;;;;;;;;2034243;28;20114;-91
2023/04/02 05:30:28;;;;;;;26.45;14.70;;;;;;;;;;2045381;28;20092;-91
2023/04/02 05:31:54;;;;;;;25.90;14.77;;;;;;;;;;2045118;28;20035;-92
2023/04/02 05:33:23;;;;;;;25.48;15.13;;;;;;;;;;2040023;29;20068;-91
2023/04/02 05:34:46;;;;;;;23.00;14.20;;;;;;;;;;2044082;28;20106;-91
2023/04/02 05:36:11;;;;;;;28.65;16.17;;;;;;;;;;2039056;29;20115;-91
2023/04/02 05:37:32;;;;;;;31.30;15.27;;;;;;;;;;2037192;29;21301;-91
2023/04/02 05:38:55;;;;;;;28.97;15.43;;;;;;;;;;2037905;28;20550;-90
2023/04/02 05:40:26;;;;;;;22.90;14.88;;;;;;;;;;2034699;29;20611;-91
2023/04/02 05:41:47;;;;;;;26.50;15.70;;;;;;;;;;2045933;28;20093;-91
2023/04/02 05:43:09;;;;;;;21.15;14.75;;;;;;;;;;2042659;28;20031;-89
2023/04/02 05:44:32;;;;;;;25.50;15.60;;;;;;;;;;2049406;28;20023;-91
2023/04/02 05:45:55;;;;;;;24.88;15.15;;;;;;;;;;2040841;29;20046;-91
2023/04/02 05:47:21;;;;;;;31.63;16.33;;;;;;;;;;2038094;29;20387;-90
2023/04/02 05:48:44;;;;;;;22.90;15.27;;;;;;;;;;2038638;28;20036;-91
2023/04/02 05:50:08;;;;;;;22.45;15.05;;;;;;;;;;2042227;29;20032;-91
2023/04/02 05:51:35;;;;;;;23.73;14.90;;;;;;;;;;2033619;29;20054;-92
2023/04/02 05:53:01;;;;;;;26.98;15.95;;;;;;;;;;2039350;29;20027;-92
2023/04/02 05:54:31;;;;;;;23.00;14.63;;;;;;;;;;2040939;29;20043;-91
2023/04/02 05:55:56;;;;;;;25.27;15.52;;;;;;;;;;2035985;29;20052;-91
2023/04/02 05:57:21;;;;;;;22.60;14.52;;;;;;;;;;2041262;29;20468;-92
2023/04/02 05:58:53;;;;;;;24.52;15.90;;;;;;;;;;2045678;28;20031;-91
2023/04/02 06:00:17;;;;;;;25.42;14.13;;;;;;;;;;2040776;29;20035;-91
2023/04/02 06:01:46;;;;;;;20.48;14.90;;;;;;;;;;2039208;29;20028;-92
2023/04/02 06:03:26;;;;;;;21.73;13.18;;;;;;;;;;2041092;29;20376;-91
2023/04/02 06:04:52;;;;;;;18.95;14.35;;;;;;;;;;2047324;29;20027;-92
2023/04/02 06:06:32;;;;;;;20.63;14.18;;;;;;;;;;2041654;29;20032;-91
2023/04/02 06:07:56;;;;;;;24.50;14.80;;;;;;;;;;2039052;29;20031;-91
2023/04/02 06:09:53;;;;;;;23.15;13.98;;;;;;;;;;2036984;29;20044;-92
2023/04/02 06:11:29;;;;;;;20.75;13.30;;;;;;;;;;2025831;29;20036;-92
2023/04/02 06:13:01;;;;;;;31.90;14.20;;;;;;;;;;2018800;29;20037;-91
2023/04/02 06:14:22;;;;;;;23.55;14.35;;;;;;;;;;2037611;29;20028;-92
2023/04/02 06:15:43;;;;;;;26.27;15.23;;;;;;;;;;2035293;29;20082;-92
2023/04/02 06:17:04;;;;;;;28.80;14.15;;;;;;;;;;2034859;29;20735;-91
2023/04/02 06:18:27;;;;;;;29.08;15.52;;;;;;;;;;2035618;28;20046;-92
2023/04/02 06:19:48;;;;;;;26.73;14.18;;;;;;;;;;2044364;28;20214;-92
2023/04/02 06:21:11;;;;;;;20.25;12.57;;;;;;;;;;2039012;29;20499;-92
2023/04/02 06:22:39;;;;;;;18.65;13.15;;;;;;;;;;2037972;29;20095;-91
2023/04/02 06:24:04;;;;;;;25.40;13.77;;;;;;;;;;2044990;28;20112;-92
2023/04/02 06:25:28;;;;;;;23.67;14.07;;;;;;;;;;2038177;29;20589;-92
2023/04/02 06:26:55;;;;;;;22.85;13.75;;;;;;;;;;2036003;29;20348;-91
2023/04/02 06:28:17;;;;;;;21.48;12.88;;;;;;;;;;2045021;28;20407;-91
2023/04/02 06:29:38;;;;;;;;;;;;;;;;;;2038152;29;20420;-91
2023/04/02 06:31:01;;;;;;;22.98;13.65;;;;;;;;;;2038468;29;20128;-91
2023/04/02 06:32:25;;;;;;;20.58;12.88;;;;;;;;;;2036874;29;20047;-92
2023/04/02 06:33:51;;;;;;;23.70;13.60;;;;;;;;;;2038416;29;20032;-92
2023/04/02 06:35:12;;;;;;;25.95;13.25;;;;;;;;;;2044504;28;20510;-91
2023/04/02 06:36:33;;;;;;;22.52;12.70;;;;;;;;;;2040310;28;20039;-91
2023/04/02 06:37:56;;;;;;;22.92;12.77;;;;;;;;;;2037355;29;20036;-92
2023/04/02 06:39:19;;;;;;;18.63;11.25;;;;;;;;;;2039695;29;20054;-92
2023/04/02 06:40:40;;;;;;;24.52;13.10;;;;;;;;;;2039470;29;20578;-91
2023/04/02 06:42:08;;;;;;;20.42;12.52;;;;;;;;;;2044902;29;20510;-92
2023/04/02 06:43:35;;;;;;;19.38;12.32;;;;;;;;;;2039274;29;20040;-92
2023/04/02 06:44:56;;;;;;;20.20;12.40;;;;;;;;;;2042841;29;20092;-92
2023/04/02 06:46:19;;;;;;;17.83;11.80;;;;;;;;;;2040135;29;20051;-92
2023/04/02 06:47:42;;;;;;;18.33;11.30;;;;;;;;;;2038726;29;20360;-92
2023/04/02 06:49:09;;;;;;;18.48;11.15;;;;;;;;;;2039542;29;20143;-92
2023/04/02 06:50:55;;;;;;;22.83;11.52;;;;;;;;;;2044877;28;20031;-91
2023/04/02 06:52:22;;;;;;;16.23;11.32;;;;;;;;;;2028278;29;20108;-91
2023/04/02 06:53:45;;;;;;;22.98;12.43;;;;;;;;;;2040416;29;20039;-91
2023/04/02 06:55:23;;;;;;;20.50;12.20;;;;;;;;;;2039318;29;20083;-91
2023/04/02 06:56:46;;;;;;;15.35;10.75;;;;;;;;;;2048499;28;20054;-92
2023/04/02 06:58:07;;;;;;;21.05;11.00;;;;;;;;;;2041297;29;20048;-92
2023/04/02 06:59:28;;;;;;;19.73;11.60;;;;;;;;;;2036525;29;20910;-92
2023/04/02 07:00:50;;;;;;;24.48;12.00;;;;;;;;;;2040974;29;20510;-91
2023/04/02 07:02:13;;;;;;;22.17;11.90;;;;;;;;;;2037692;29;20107;-91
2023/04/02 07:03:34;;;;;;;23.88;11.50;;;;;;;;;;2036285;29;20036;-91
2023/04/02 07:05:03;;;;;;;20.10;10.85;;;;;;;;;;2037568;29;20028;-92
2023/04/02 07:06:24;;;;;;;19.60;11.18;;;;;;;;;;2047185;28;20075;-92
2023/04/02 07:07:45;;;;;;;16.73;11.18;;;;;;;;;;2041051;29;20035;-91
2023/04/02 07:09:06;;;;;;;18.10;10.82;;;;;;;;;;2037836;29;21502;-92
2023/04/02 07:10:27;;;;;;;19.77;11.85;;;;;;;;;;2037487;29;20035;-92
2023/04/02 07:11:48;;;;;;;23.83;12.18;;;;;;;;;;2037504;29;20340;-91
2023/04/02 07:13:13;;;;;;;19.77;11.52;;;;;;;;;;2038809;29;20039;-91
2023/04/02 07:14:34;;;;;;;24.80;12.32;;;;;;;;;;2039340;29;20040;-92
2023/04/02 07:15:55;;;;;;;24.77;12.73;;;;;;;;;;2036442;29;20178;-92
2023/04/02 07:17:17;;;;;;;25.27;11.45;;;;;;;;;;2038274;29;20027;-91
2023/04/02 07:18:38;;;;;;;26.95;13.52;;;;;;;;;;2034598;28;20130;-92
2023/04/02 07:19:59;;;;;;;24.95;11.57;;;;;;;;;;2039800;29;20042;-92
2023/04/02 07:21:20;;;;;;;23.05;11.77;;;;;;;;;;2045029;28;20032;-93
2023/04/02 07:22:41;;;;;;;27.85;10.95;;;;;;;;;;2047986;28;20402;-91
2023/04/02 07:24:02;;;;;;;16.33;10.20;;;;;;;;;;2041782;29;20039;-92
2023/04/02 07:25:24;;;;;;;20.52;11.65;;;;;;;;;;2047120;28;20035;-92
2023/04/02 07:26:46;;;;;;;18.05;10.57;;;;;;;;;;2042092;29;20088;-92
2023/04/02 07:28:07;;;;;;;;;;;;;;;;;;2041935;29;20028;-92
2023/04/02 07:29:28;;;;;;;17.33;10.63;;;;;;;;;;2039455;29;19930;-93
2023/04/02 07:30:50;;;;;;;21.38;11.68;;;;;;;;;;2041173;29;20031;-92
2023/04/02 07:32:11;;;;;;;19.45;10.38;;;;;;;;;;2040676;29;20040;-92
2023/04/02 07:33:32;;;;;;;17.40;9.75;;;;;;;;;;2046593;28;20035;-91
2023/04/02 07:34:53;;;;;;;17.50;10.75;;;;;;;;;;2047048;28;20118;-92
2023/04/02 07:36:15;;;;;;;19.77;10.98;;;;;;;;;;2041217;29;20054;-92
2023/04/02 07:37:37;;;;;;;17.95;10.82;;;;;;;;;;2037458;29;20344;-92
2023/04/02 07:38:58;;;;;;;15.60;9.80;;;;;;;;;;2044351;28;20038;-92
2023/04/02 07:40:23;;;;;;;17.73;10.27;;;;;;;;;;2042657;29;20443;-91
2023/04/02 07:41:49;;;;;;;19.85;11.77;;;;;;;;;;2047672;28;20043;-91
2023/04/02 07:43:10;;;;;;;14.05;10.00;;;;;;;;;;2046771;28;20383;-91
2023/04/02 07:44:31;;;;;;;28.63;11.77;;;;;;;;;;2038756;29;20126;-90
2023/04/02 07:45:52;;;;;;;14.68;10.43;;;;;;;;;;2039262;29;20036;-91
2023/04/02 07:47:13;;;;;;;14.45;9.52;;;;;;;;;;2042712;28;20373;-91
2023/04/02 07:48:34;;;;;;;20.15;11.77;;;;;;;;;;2039329;29;21432;-91
2023/04/02 07:49:55;;;;;;;26.73;11.05;;;;;;;;;;2036539;29;20146;-91
2023/04/02 07:51:16;;;;;;;15.73;9.75;;;;;;;;;;2045837;28;20031;-91
2023/04/02 07:52:41;;;;;;;18.17;10.48;;;;;;;;;;2037708;29;20643;-93
2023/04/02 07:54:03;;;;;;;16.10;10.05;;;;;;;;;;2039572;29;20048;-93
2023/04/02 07:55:24;;;;;;;18.35;9.95;;;;;;;;;;2039501;29;20392;-93
2023/04/02 07:56:45;;;;;;;20.52;10.23;;;;;;;;;;2037491;29;20739;-93
2023/04/02 07:58:07;;;;;;;18.80;9.88;;;;;;;;;;2043483;29;20031;-91
2023/04/02 07:59:28;;;;;;;16.42;9.23;;;;;;;;;;2038970;29;20048;-93
2023/04/02 08:00:49;;;;;;;20.67;10.73;;;;;;;;;;2036680;29;20156;-92
2023/04/02 08:02:20;;;;;;;14.25;9.13;;;;;;;;;;2035637;29;20060;-93
2023/04/02 08:03:41;;;;;;;13.10;9.43;;;;;;;;;;2036121;29;20475;-93
2023/04/02 08:05:42;;;;;;;16.20;9.73;;;;;;;;;;2045767;28;20035;-95
2023/04/02 08:07:06;;;;;;;13.48;9.70;;;;;;;;;;2038908;29;20054;-96
2023/04/02 08:08:27;;;;;;;15.70;9.40;;;;;;;;;;2036538;29;20028;-95
2023/04/02 08:09:48;;;;;;;16.42;10.10;;;;;;;;;;2036650;29;20458;-94
2023/04/02 08:11:16;;;;;;;18.92;10.10;;;;;;;;;;2047109;28;20578;-95
2023/04/02 08:12:37;;;;;;;19.27;10.18;;;;;;;;;;2044869;29;20074;-95
2023/04/02 08:14:01;;;;;;;23.25;11.27;;;;;;;;;;2040100;29;20440;-94
2023/04/02 08:15:25;;;;;;;19.38;10.73;;;;;;;;;;2037663;29;20036;-95
2023/04/02 08:16:50;;;;;;;15.02;9.85;;;;;;;;;;2038642;29;20448;-95
2023/04/02 08:18:11;;;;;;;15.18;9.50;;;;;;;;;;2039313;29;20032;-95
2023/04/02 08:19:38;;;;;;;16.50;9.95;;;;;;;;;;2031985;28;20515;-95
2023/04/02 08:21:00;;;;;;;14.88;10.55;;;;;;;;;;2038489;29;20032;-95
2023/04/02 08:22:23;;;;;;;14.93;9.18;;;;;;;;;;2036781;29;20031;-93
2023/04/02 08:23:44;;;;;;;19.35;11.32;;;;;;;;;;2035532;29;20094;-93
2023/04/02 08:25:05;;;;;;;13.65;9.27;;;;;;;;;;2038409;29;20032;-93
2023/04/02 08:26:27;;;;;;;14.38;9.50;;;;;;;;;;2044701;29;20043;-94
2023/04/02 08:27:51;;;;;;;16.75;9.85;;;;;;;;;;2039940;29;20032;-92
2023/04/02 08:29:12;;;;;;;12.93;9.95;;;;;;;;;;2030629;28;20179;-94
2023/04/02 08:30:33;;;;;;;14.60;10.25;;;;;;;;;;2034228;29;20043;-93
2023/04/02 08:31:57;;;;;;;13.93;9.20;;;;;;;;;;2036373;29;20095;-93
2023/04/02 08:33:18;;;;;;;18.50;9.88;;;;;;;;;;2035569;29;20048;-93
2023/04/02 08:34:45;;;;;;;18.67;10.35;;;;;;;;;;2034285;29;20036;-94
2023/04/02 08:36:07;;;;;;;17.05;9.88;;;;;;;;;;2036933;29;20043;-93
2023/04/02 08:37:28;;;;;;;19.33;10.30;;;;;;;;;;2038528;29;20027;-93
2023/04/02 08:38:50;;;;;;;19.13;9.88;;;;;;;;;;2041572;29;20035;-93
2023/04/02 08:40:31;;;;;;;12.27;9.13;;;;;;;;;;2049231;28;20035;-92
2023/04/02 08:41:59;;;;;;;17.55;9.25;;;;;;;;;;2036272;29;20458;-93